sensor_id;sensor_type;location;lat;lon;timestamp;P1;durP1;ratioP1;P2;durP2;ratioP2
31638;SDS011;18248;51.522;7.020;2023-10-13T00:00:50;27.30;;;13.80;;
31638;SDS011;18248;51.522;7.020;2023-10-13T00:03:55;21.50;;;12.20;;
31638;SDS011;18248;51.522;7.020;2023-10-13T00:06:54;26.92;;;12.77;;
31638;SDS011;18248;51.522;7.020;2023-10-13T00:09:56;21.17;;;11.40;;
31638;SDS011;18248;51.522;7.020;2023-10-13T00:12:54;18.30;;;11.52;;
31638;SDS011;18248;51.522;7.020;2023-10-13T00:16:03;18.17;;;10.48;;
31638;SDS011;18248;51.522;7.020;2023-10-13T00:19:07;21.73;;;10.98;;
31638;SDS011;18248;51.522;7.020;2023-10-13T00:22:08;21.80;;;11.98;;
31638;SDS011;18248;51.522;7.020;2023-10-13T00:25:07;26.65;;;10.88;;
31638;SDS011;18248;51.522;7.020;2023-10-13T00:28:12;26.50;;;13.05;;
31638;SDS011;18248;51.522;7.020;2023-10-13T00:31:20;18.98;;;10.77;;
31638;SDS011;18248;51.522;7.020;2023-10-13T00:34:19;22.92;;;11.35;;
31638;SDS011;18248;51.522;7.020;2023-10-13T00:37:25;23.00;;;12.00;;
31638;SDS011;18248;51.522;7.020;2023-10-13T00:40:35;26.17;;;12.80;;
31638;SDS011;18248;51.522;7.020;2023-10-13T00:43:34;26.08;;;12.10;;
31638;SDS011;18248;51.522;7.020;2023-10-13T00:46:43;24.95;;;11.18;;
31638;SDS011;18248;51.522;7.020;2023-10-13T00:49:46;19.58;;;11.65;;
31638;SDS011;18248;51.522;7.020;2023-10-13T00:52:46;20.55;;;10.27;;
31638;SDS011;18248;51.522;7.020;2023-10-13T00:55:48;18.10;;;11.07;;
31638;SDS011;18248;51.522;7.020;2023-10-13T00:58:47;20.00;;;11.38;;
31638;SDS011;18248;51.522;7.020;2023-10-13T01:01:50;23.83;;;11.00;;
31638;SDS011;18248;51.522;7.020;2023-10-13T01:04:53;15.63;;;9.23;;
31638;SDS011;18248;51.522;7.020;2023-10-13T01:07:52;19.35;;;10.40;;
31638;SDS011;18248;51.522;7.020;2023-10-13T01:10:52;19.50;;;10.63;;
31638;SDS011;18248;51.522;7.020;2023-10-13T01:13:51;18.58;;;9.60;;
31638;SDS011;18248;51.522;7.020;2023-10-13T01:16:51;14.68;;;9.18;;
31638;SDS011;18248;51.522;7.020;2023-10-13T01:19:50;21.15;;;12.00;;
31638;SDS011;18248;51.522;7.020;2023-10-13T01:22:56;18.33;;;10.18;;
31638;SDS011;18248;51.522;7.020;2023-10-13T01:25:54;23.38;;;11.93;;
31638;SDS011;18248;51.522;7.020;2023-10-13T01:28:56;22.23;;;13.30;;
31638;SDS011;18248;51.522;7.020;2023-10-13T01:31:55;21.48;;;12.32;;
31638;SDS011;18248;51.522;7.020;2023-10-13T01:34:54;29.92;;;13.02;;
31638;SDS011;18248;51.522;7.020;2023-10-13T01:38:03;24.77;;;12.30;;
31638;SDS011;18248;51.522;7.020;2023-10-13T01:41:04;19.90;;;10.57;;
31638;SDS011;18248;51.522;7.020;2023-10-13T01:44:03;21.77;;;10.43;;
31638;SDS011;18248;51.522;7.020;2023-10-13T01:47:02;14.95;;;9.23;;
31638;SDS011;18248;51.522;7.020;2023-10-13T01:50:04;26.20;;;11.65;;
31638;SDS011;18248;51.522;7.020;2023-10-13T01:53:18;19.25;;;10.55;;
31638;SDS011;18248;51.522;7.020;2023-10-13T01:56:17;17.08;;;10.30;;
31638;SDS011;18248;51.522;7.020;2023-10-13T01:59:16;19.90;;;10.75;;
31638;SDS011;18248;51.522;7.020;2023-10-13T02:02:15;24.75;;;11.57;;
31638;SDS011;18248;51.522;7.020;2023-10-13T02:05:26;22.13;;;10.48;;
31638;SDS011;18248;51.522;7.020;2023-10-13T02:08:31;21.05;;;10.10;;
31638;SDS011;18248;51.522;7.020;2023-10-13T02:11:30;18.85;;;9.65;;
31638;SDS011;18248;51.522;7.020;2023-10-13T02:14:29;18.92;;;9.57;;
31638;SDS011;18248;51.522;7.020;2023-10-13T02:17:31;18.38;;;10.48;;
31638;SDS011;18248;51.522;7.020;2023-10-13T02:20:38;26.77;;;12.15;;
31638;SDS011;18248;51.522;7.020;2023-10-13T02:23:41;24.27;;;11.10;;
31638;SDS011;18248;51.522;7.020;2023-10-13T02:26:44;14.60;;;8.68;;
31638;SDS011;18248;51.522;7.020;2023-10-13T02:29:42;16.10;;;9.73;;
31638;SDS011;18248;51.522;7.020;2023-10-13T02:32:44;25.92;;;10.05;;
31638;SDS011;18248;51.522;7.020;2023-10-13T02:35:42;18.52;;;9.88;;
31638;SDS011;18248;51.522;7.020;2023-10-13T02:38:51;22.48;;;9.73;;
31638;SDS011;18248;51.522;7.020;2023-10-13T02:41:49;19.80;;;10.48;;
31638;SDS011;18248;51.522;7.020;2023-10-13T02:44:49;17.80;;;10.13;;
31638;SDS011;18248;51.522;7.020;2023-10-13T02:47:49;20.23;;;10.75;;
31638;SDS011;18248;51.522;7.020;2023-10-13T02:51:07;19.10;;;10.05;;
31638;SDS011;18248;51.522;7.020;2023-10-13T02:54:16;17.73;;;9.95;;
31638;SDS011;18248;51.522;7.020;2023-10-13T02:57:17;22.60;;;10.50;;
31638;SDS011;18248;51.522;7.020;2023-10-13T03:00:16;22.85;;;10.15;;
31638;SDS011;18248;51.522;7.020;2023-10-13T03:03:14;15.20;;;8.75;;
31638;SDS011;18248;51.522;7.020;2023-10-13T03:06:16;16.95;;;9.68;;
31638;SDS011;18248;51.522;7.020;2023-10-13T03:09:16;15.57;;;8.63;;
31638;SDS011;18248;51.522;7.020;2023-10-13T03:12:16;18.45;;;10.65;;
31638;SDS011;18248;51.522;7.020;2023-10-13T03:15:15;21.20;;;10.35;;
31638;SDS011;18248;51.522;7.020;2023-10-13T03:18:18;22.40;;;10.77;;
31638;SDS011;18248;51.522;7.020;2023-10-13T03:21:17;16.88;;;10.02;;
31638;SDS011;18248;51.522;7.020;2023-10-13T03:24:29;21.75;;;10.25;;
31638;SDS011;18248;51.522;7.020;2023-10-13T03:27:33;17.77;;;10.60;;
31638;SDS011;18248;51.522;7.020;2023-10-13T03:30:50;18.42;;;9.82;;
31638;SDS011;18248;51.522;7.020;2023-10-13T03:33:50;20.60;;;11.18;;
31638;SDS011;18248;51.522;7.020;2023-10-13T03:36:54;20.60;;;10.10;;
31638;SDS011;18248;51.522;7.020;2023-10-13T03:39:55;19.20;;;10.18;;
31638;SDS011;18248;51.522;7.020;2023-10-13T03:42:54;19.73;;;11.18;;
31638;SDS011;18248;51.522;7.020;2023-10-13T03:46:02;21.77;;;11.90;;
31638;SDS011;18248;51.522;7.020;2023-10-13T03:49:06;18.75;;;11.80;;
31638;SDS011;18248;51.522;7.020;2023-10-13T03:52:10;17.35;;;11.10;;
31638;SDS011;18248;51.522;7.020;2023-10-13T03:55:11;20.88;;;13.00;;
31638;SDS011;18248;51.522;7.020;2023-10-13T03:58:15;22.27;;;12.02;;
31638;SDS011;18248;51.522;7.020;2023-10-13T04:01:15;22.80;;;11.30;;
31638;SDS011;18248;51.522;7.020;2023-10-13T04:04:15;22.98;;;12.82;;
31638;SDS011;18248;51.522;7.020;2023-10-13T04:07:31;19.88;;;12.15;;
31638;SDS011;18248;51.522;7.020;2023-10-13T04:10:30;18.35;;;11.10;;
31638;SDS011;18248;51.522;7.020;2023-10-13T04:13:47;15.98;;;11.98;;
31638;SDS011;18248;51.522;7.020;2023-10-13T04:17:04;23.20;;;13.70;;
31638;SDS011;18248;51.522;7.020;2023-10-13T04:20:12;20.38;;;12.48;;
31638;SDS011;18248;51.522;7.020;2023-10-13T04:23:10;22.38;;;12.10;;
31638;SDS011;18248;51.522;7.020;2023-10-13T04:26:23;23.60;;;12.32;;
31638;SDS011;18248;51.522;7.020;2023-10-13T04:29:34;23.48;;;12.35;;
31638;SDS011;18248;51.522;7.020;2023-10-13T04:32:51;20.33;;;12.30;;
31638;SDS011;18248;51.522;7.020;2023-10-13T04:36:13;20.05;;;11.73;;
31638;SDS011;18248;51.522;7.020;2023-10-13T04:39:14;21.02;;;11.05;;
31638;SDS011;18248;51.522;7.020;2023-10-13T04:42:27;16.80;;;10.70;;
31638;SDS011;18248;51.522;7.020;2023-10-13T04:45:37;16.63;;;10.60;;
31638;SDS011;18248;51.522;7.020;2023-10-13T04:48:35;21.65;;;10.85;;
31638;SDS011;18248;51.522;7.020;2023-10-13T04:51:37;21.00;;;10.38;;
31638;SDS011;18248;51.522;7.020;2023-10-13T04:54:51;20.55;;;10.90;;
31638;SDS011;18248;51.522;7.020;2023-10-13T04:57:52;24.90;;;10.55;;
31638;SDS011;18248;51.522;7.020;2023-10-13T05:01:08;21.05;;;10.65;;
31638;SDS011;18248;51.522;7.020;2023-10-13T05:04:21;22.92;;;12.15;;
31638;SDS011;18248;51.522;7.020;2023-10-13T05:07:28;23.77;;;12.23;;
31638;SDS011;18248;51.522;7.020;2023-10-13T05:10:45;24.48;;;11.88;;
31638;SDS011;18248;51.522;7.020;2023-10-13T05:14:03;24.15;;;11.73;;
31638;SDS011;18248;51.522;7.020;2023-10-13T05:17:20;19.98;;;10.48;;
31638;SDS011;18248;51.522;7.020;2023-10-13T05:20:37;25.08;;;11.68;;
31638;SDS011;18248;51.522;7.020;2023-10-13T05:23:54;14.57;;;9.90;;
31638;SDS011;18248;51.522;7.020;2023-10-13T05:27:12;22.00;;;11.13;;
31638;SDS011;18248;51.522;7.020;2023-10-13T05:30:29;24.08;;;11.05;;
31638;SDS011;18248;51.522;7.020;2023-10-13T05:33:46;18.90;;;11.65;;
31638;SDS011;18248;51.522;7.020;2023-10-13T05:37:03;23.30;;;12.77;;
31638;SDS011;18248;51.522;7.020;2023-10-13T05:40:20;22.65;;;11.73;;
31638;SDS011;18248;51.522;7.020;2023-10-13T05:43:38;17.25;;;11.40;;
31638;SDS011;18248;51.522;7.020;2023-10-13T05:46:55;28.70;;;11.68;;
31638;SDS011;18248;51.522;7.020;2023-10-13T05:50:19;28.60;;;12.95;;
31638;SDS011;18248;51.522;7.020;2023-10-13T05:53:18;24.88;;;12.13;;
31638;SDS011;18248;51.522;7.020;2023-10-13T05:56:35;25.80;;;11.48;;
31638;SDS011;18248;51.522;7.020;2023-10-13T05:59:52;22.50;;;11.18;;
31638;SDS011;18248;51.522;7.020;2023-10-13T06:03:09;18.38;;;10.77;;
31638;SDS011;18248;51.522;7.020;2023-10-13T06:06:47;18.85;;;9.82;;
31638;SDS011;18248;51.522;7.020;2023-10-13T06:10:04;26.52;;;10.15;;
31638;SDS011;18248;51.522;7.020;2023-10-13T06:13:21;19.63;;;9.68;;
31638;SDS011;18248;51.522;7.020;2023-10-13T06:16:39;16.83;;;8.75;;
31638;SDS011;18248;51.522;7.020;2023-10-13T06:19:56;17.40;;;8.30;;
31638;SDS011;18248;51.522;7.020;2023-10-13T06:23:13;22.58;;;9.60;;
31638;SDS011;18248;51.522;7.020;2023-10-13T06:26:31;23.67;;;8.75;;
31638;SDS011;18248;51.522;7.020;2023-10-13T06:29:48;16.90;;;8.23;;
31638;SDS011;18248;51.522;7.020;2023-10-13T06:32:46;17.02;;;7.55;;
31638;SDS011;18248;51.522;7.020;2023-10-13T06:35:49;25.13;;;8.63;;
31638;SDS011;18248;51.522;7.020;2023-10-13T06:38:48;20.58;;;8.00;;
31638;SDS011;18248;51.522;7.020;2023-10-13T06:41:53;18.15;;;7.40;;
31638;SDS011;18248;51.522;7.020;2023-10-13T06:44:51;27.25;;;8.45;;
31638;SDS011;18248;51.522;7.020;2023-10-13T06:47:51;20.52;;;7.80;;
31638;SDS011;18248;51.522;7.020;2023-10-13T06:50:51;22.98;;;7.97;;
31638;SDS011;18248;51.522;7.020;2023-10-13T06:53:50;25.02;;;7.60;;
31638;SDS011;18248;51.522;7.020;2023-10-13T06:56:54;18.23;;;8.10;;
31638;SDS011;18248;51.522;7.020;2023-10-13T06:59:53;19.00;;;6.70;;
31638;SDS011;18248;51.522;7.020;2023-10-13T07:02:53;15.20;;;6.78;;
31638;SDS011;18248;51.522;7.020;2023-10-13T07:05:52;18.77;;;7.20;;
31638;SDS011;18248;51.522;7.020;2023-10-13T07:08:51;18.73;;;7.18;;
31638;SDS011;18248;51.522;7.020;2023-10-13T07:11:50;24.75;;;7.38;;
31638;SDS011;18248;51.522;7.020;2023-10-13T07:14:50;18.05;;;6.78;;
31638;SDS011;18248;51.522;7.020;2023-10-13T07:17:49;21.48;;;7.05;;
31638;SDS011;18248;51.522;7.020;2023-10-13T07:20:57;20.20;;;6.82;;
31638;SDS011;18248;51.522;7.020;2023-10-13T07:23:56;15.13;;;6.32;;
31638;SDS011;18248;51.522;7.020;2023-10-13T07:27:09;23.10;;;7.63;;
31638;SDS011;18248;51.522;7.020;2023-10-13T07:30:07;20.77;;;6.57;;
31638;SDS011;18248;51.522;7.020;2023-10-13T07:33:09;27.33;;;7.38;;
31638;SDS011;18248;51.522;7.020;2023-10-13T07:36:11;20.88;;;7.75;;
31638;SDS011;18248;51.522;7.020;2023-10-13T07:39:38;21.65;;;7.18;;
31638;SDS011;18248;51.522;7.020;2023-10-13T07:42:38;17.63;;;7.00;;
31638;SDS011;18248;51.522;7.020;2023-10-13T07:45:41;17.20;;;7.53;;
31638;SDS011;18248;51.522;7.020;2023-10-13T07:48:40;19.40;;;7.00;;
31638;SDS011;18248;51.522;7.020;2023-10-13T07:51:39;23.67;;;8.27;;
31638;SDS011;18248;51.522;7.020;2023-10-13T07:54:48;19.75;;;7.38;;
31638;SDS011;18248;51.522;7.020;2023-10-13T07:57:47;20.30;;;7.13;;
31638;SDS011;18248;51.522;7.020;2023-10-13T08:00:51;19.27;;;7.40;;
31638;SDS011;18248;51.522;7.020;2023-10-13T08:04:16;19.42;;;6.63;;
31638;SDS011;18248;51.522;7.020;2023-10-13T08:07:26;17.58;;;6.95;;
31638;SDS011;18248;51.522;7.020;2023-10-13T08:10:26;19.08;;;6.43;;
31638;SDS011;18248;51.522;7.020;2023-10-13T08:13:27;32.83;;;6.43;;
31638;SDS011;18248;51.522;7.020;2023-10-13T08:16:28;18.52;;;6.05;;
31638;SDS011;18248;51.522;7.020;2023-10-13T08:19:45;23.13;;;6.13;;
31638;SDS011;18248;51.522;7.020;2023-10-13T08:22:44;20.35;;;6.28;;
31638;SDS011;18248;51.522;7.020;2023-10-13T08:25:45;21.58;;;6.60;;
31638;SDS011;18248;51.522;7.020;2023-10-13T08:29:16;22.38;;;6.63;;
31638;SDS011;18248;51.522;7.020;2023-10-13T08:32:24;17.15;;;6.18;;
31638;SDS011;18248;51.522;7.020;2023-10-13T08:35:27;21.90;;;5.68;;
31638;SDS011;18248;51.522;7.020;2023-10-13T08:38:33;20.38;;;6.10;;
31638;SDS011;18248;51.522;7.020;2023-10-13T08:41:48;16.63;;;6.00;;
31638;SDS011;18248;51.522;7.020;2023-10-13T08:45:16;17.83;;;5.80;;
31638;SDS011;18248;51.522;7.020;2023-10-13T08:48:21;20.90;;;6.20;;
31638;SDS011;18248;51.522;7.020;2023-10-13T08:51:31;23.80;;;6.10;;
31638;SDS011;18248;51.522;7.020;2023-10-13T08:55:02;29.27;;;6.38;;
31638;SDS011;18248;51.522;7.020;2023-10-13T08:58:32;14.90;;;5.53;;
31638;SDS011;18248;51.522;7.020;2023-10-13T09:01:51;17.73;;;5.78;;
31638;SDS011;18248;51.522;7.020;2023-10-13T09:04:50;17.60;;;5.70;;
31638;SDS011;18248;51.522;7.020;2023-10-13T09:07:57;15.75;;;5.55;;
31638;SDS011;18248;51.522;7.020;2023-10-13T09:11:06;30.15;;;6.30;;
31638;SDS011;18248;51.522;7.020;2023-10-13T09:14:15;17.02;;;5.25;;
31638;SDS011;18248;51.522;7.020;2023-10-13T09:17:39;18.52;;;5.93;;
31638;SDS011;18248;51.522;7.020;2023-10-13T09:20:49;19.65;;;5.82;;
31638;SDS011;18248;51.522;7.020;2023-10-13T09:24:18;20.88;;;5.80;;
31638;SDS011;18248;51.522;7.020;2023-10-13T09:27:19;17.00;;;4.80;;
31638;SDS011;18248;51.522;7.020;2023-10-13T09:30:17;21.70;;;5.47;;
31638;SDS011;18248;51.522;7.020;2023-10-13T09:33:23;17.80;;;5.50;;
31638;SDS011;18248;51.522;7.020;2023-10-13T09:36:30;23.23;;;5.57;;
31638;SDS011;18248;51.522;7.020;2023-10-13T09:39:30;15.45;;;4.85;;
31638;SDS011;18248;51.522;7.020;2023-10-13T09:42:42;19.83;;;6.38;;
31638;SDS011;18248;51.522;7.020;2023-10-13T09:45:41;21.58;;;5.72;;
31638;SDS011;18248;51.522;7.020;2023-10-13T09:48:59;23.85;;;5.53;;
31638;SDS011;18248;51.522;7.020;2023-10-13T09:52:16;18.08;;;5.57;;
31638;SDS011;18248;51.522;7.020;2023-10-13T09:55:26;19.40;;;6.13;;
31638;SDS011;18248;51.522;7.020;2023-10-13T09:58:28;19.92;;;5.85;;
31638;SDS011;18248;51.522;7.020;2023-10-13T10:01:37;17.75;;;5.40;;
31638;SDS011;18248;51.522;7.020;2023-10-13T10:04:51;21.73;;;6.45;;
31638;SDS011;18248;51.522;7.020;2023-10-13T10:07:54;14.98;;;5.65;;
31638;SDS011;18248;51.522;7.020;2023-10-13T10:11:00;19.00;;;5.95;;
31638;SDS011;18248;51.522;7.020;2023-10-13T10:20:06;16.25;;;5.80;;
31638;SDS011;18248;51.522;7.020;2023-10-13T10:23:25;24.30;;;6.13;;
31638;SDS011;18248;51.522;7.020;2023-10-13T10:26:26;21.67;;;6.40;;
31638;SDS011;18248;51.522;7.020;2023-10-13T10:29:27;23.80;;;6.32;;
31638;SDS011;18248;51.522;7.020;2023-10-13T10:32:36;20.20;;;6.18;;
31638;SDS011;18248;51.522;7.020;2023-10-13T10:35:35;15.98;;;5.80;;
31638;SDS011;18248;51.522;7.020;2023-10-13T10:38:34;17.63;;;6.07;;
31638;SDS011;18248;51.522;7.020;2023-10-13T10:41:36;18.10;;;6.03;;
31638;SDS011;18248;51.522;7.020;2023-10-13T10:44:41;23.35;;;6.63;;
31638;SDS011;18248;51.522;7.020;2023-10-13T10:47:48;19.23;;;5.68;;
31638;SDS011;18248;51.522;7.020;2023-10-13T10:50:54;19.05;;;6.95;;
31638;SDS011;18248;51.522;7.020;2023-10-13T10:53:53;15.23;;;6.07;;
31638;SDS011;18248;51.522;7.020;2023-10-13T10:56:55;21.90;;;7.25;;
31638;SDS011;18248;51.522;7.020;2023-10-13T10:59:54;16.15;;;6.07;;
31638;SDS011;18248;51.522;7.020;2023-10-13T11:03:12;20.20;;;6.07;;
31638;SDS011;18248;51.522;7.020;2023-10-13T11:06:12;16.15;;;6.07;;
31638;SDS011;18248;51.522;7.020;2023-10-13T11:09:22;18.05;;;6.45;;
31638;SDS011;18248;51.522;7.020;2023-10-13T11:12:37;18.27;;;6.20;;
31638;SDS011;18248;51.522;7.020;2023-10-13T11:15:43;21.95;;;6.78;;
31638;SDS011;18248;51.522;7.020;2023-10-13T11:18:42;26.67;;;6.72;;
31638;SDS011;18248;51.522;7.020;2023-10-13T11:21:41;13.40;;;5.82;;
31638;SDS011;18248;51.522;7.020;2023-10-13T11:24:40;17.40;;;7.15;;
31638;SDS011;18248;51.522;7.020;2023-10-13T11:27:40;21.00;;;7.45;;
31638;SDS011;18248;51.522;7.020;2023-10-13T11:30:54;20.58;;;6.50;;
31638;SDS011;18248;51.522;7.020;2023-10-13T11:33:56;15.48;;;6.25;;
31638;SDS011;18248;51.522;7.020;2023-10-13T11:36:55;16.55;;;7.10;;
31638;SDS011;18248;51.522;7.020;2023-10-13T11:39:53;24.77;;;6.78;;
31638;SDS011;18248;51.522;7.020;2023-10-13T11:42:52;21.20;;;7.45;;
31638;SDS011;18248;51.522;7.020;2023-10-13T11:45:52;20.88;;;7.60;;
31638;SDS011;18248;51.522;7.020;2023-10-13T11:48:54;19.52;;;6.38;;
31638;SDS011;18248;51.522;7.020;2023-10-13T11:51:53;19.05;;;6.40;;
31638;SDS011;18248;51.522;7.020;2023-10-13T11:55:13;21.60;;;6.60;;
31638;SDS011;18248;51.522;7.020;2023-10-13T11:58:12;20.42;;;6.68;;
31638;SDS011;18248;51.522;7.020;2023-10-13T12:01:10;20.90;;;6.15;;
31638;SDS011;18248;51.522;7.020;2023-10-13T12:04:09;30.10;;;6.72;;
31638;SDS011;18248;51.522;7.020;2023-10-13T12:07:27;18.83;;;5.85;;
31638;SDS011;18248;51.522;7.020;2023-10-13T12:10:43;16.83;;;5.85;;
31638;SDS011;18248;51.522;7.020;2023-10-13T12:13:57;22.25;;;6.15;;
31638;SDS011;18248;51.522;7.020;2023-10-13T12:16:56;24.90;;;5.85;;
31638;SDS011;18248;51.522;7.020;2023-10-13T12:20:04;28.17;;;6.40;;
31638;SDS011;18248;51.522;7.020;2023-10-13T12:23:07;19.13;;;6.78;;
31638;SDS011;18248;51.522;7.020;2023-10-13T12:26:13;24.38;;;6.40;;
31638;SDS011;18248;51.522;7.020;2023-10-13T12:29:18;18.58;;;6.20;;
31638;SDS011;18248;51.522;7.020;2023-10-13T12:32:21;21.37;;;6.37;;
31638;SDS011;18248;51.522;7.020;2023-10-13T12:35:24;19.60;;;5.78;;
31638;SDS011;18248;51.522;7.020;2023-10-13T12:38:33;30.58;;;6.43;;
31638;SDS011;18248;51.522;7.020;2023-10-13T12:41:44;29.88;;;6.30;;
31638;SDS011;18248;51.522;7.020;2023-10-13T12:45:01;23.80;;;5.53;;
31638;SDS011;18248;51.522;7.020;2023-10-13T12:48:18;26.40;;;6.80;;
31638;SDS011;18248;51.522;7.020;2023-10-13T12:51:35;26.35;;;6.82;;
31638;SDS011;18248;51.522;7.020;2023-10-13T12:54:34;28.33;;;6.18;;
31638;SDS011;18248;51.522;7.020;2023-10-13T12:57:37;29.70;;;6.60;;
31638;SDS011;18248;51.522;7.020;2023-10-13T13:00:41;28.70;;;6.97;;
31638;SDS011;18248;51.522;7.020;2023-10-13T13:03:46;26.75;;;6.70;;
31638;SDS011;18248;51.522;7.020;2023-10-13T13:06:47;22.73;;;6.65;;
31638;SDS011;18248;51.522;7.020;2023-10-13T13:09:46;19.90;;;5.90;;
31638;SDS011;18248;51.522;7.020;2023-10-13T13:12:45;26.73;;;6.80;;
31638;SDS011;18248;51.522;7.020;2023-10-13T13:15:43;22.63;;;6.43;;
31638;SDS011;18248;51.522;7.020;2023-10-13T13:18:44;20.45;;;6.22;;
31638;SDS011;18248;51.522;7.020;2023-10-13T13:21:43;26.58;;;6.82;;
31638;SDS011;18248;51.522;7.020;2023-10-13T13:24:42;21.83;;;6.10;;
31638;SDS011;18248;51.522;7.020;2023-10-13T13:27:42;29.67;;;6.45;;
31638;SDS011;18248;51.522;7.020;2023-10-13T13:30:41;24.10;;;6.60;;
31638;SDS011;18248;51.522;7.020;2023-10-13T13:33:39;38.60;;;7.70;;
31638;SDS011;18248;51.522;7.020;2023-10-13T13:36:41;23.45;;;6.25;;
31638;SDS011;18248;51.522;7.020;2023-10-13T13:39:42;23.10;;;6.40;;
31638;SDS011;18248;51.522;7.020;2023-10-13T13:42:44;32.88;;;6.78;;
31638;SDS011;18248;51.522;7.020;2023-10-13T13:45:44;24.83;;;6.18;;
31638;SDS011;18248;51.522;7.020;2023-10-13T13:48:43;28.42;;;6.38;;
31638;SDS011;18248;51.522;7.020;2023-10-13T13:51:45;32.65;;;7.13;;
31638;SDS011;18248;51.522;7.020;2023-10-13T13:54:49;30.23;;;6.55;;
31638;SDS011;18248;51.522;7.020;2023-10-13T13:57:48;28.23;;;6.40;;
31638;SDS011;18248;51.522;7.020;2023-10-13T14:00:48;31.23;;;7.82;;
31638;SDS011;18248;51.522;7.020;2023-10-13T14:03:47;28.13;;;5.53;;
31638;SDS011;18248;51.522;7.020;2023-10-13T14:06:50;22.33;;;6.22;;
31638;SDS011;18248;51.522;7.020;2023-10-13T14:09:48;25.90;;;6.68;;
31638;SDS011;18248;51.522;7.020;2023-10-13T14:12:50;27.70;;;6.80;;
31638;SDS011;18248;51.522;7.020;2023-10-13T14:15:48;30.10;;;6.63;;
31638;SDS011;18248;51.522;7.020;2023-10-13T14:18:54;34.22;;;6.65;;
31638;SDS011;18248;51.522;7.020;2023-10-13T14:21:53;24.77;;;6.45;;
31638;SDS011;18248;51.522;7.020;2023-10-13T14:24:55;22.27;;;6.03;;
31638;SDS011;18248;51.522;7.020;2023-10-13T14:27:54;30.52;;;6.70;;
31638;SDS011;18248;51.522;7.020;2023-10-13T14:30:56;22.38;;;6.07;;
31638;SDS011;18248;51.522;7.020;2023-10-13T14:33:55;35.10;;;6.38;;
31638;SDS011;18248;51.522;7.020;2023-10-13T14:36:54;28.77;;;6.10;;
31638;SDS011;18248;51.522;7.020;2023-10-13T14:39:53;36.00;;;6.88;;
31638;SDS011;18248;51.522;7.020;2023-10-13T14:42:55;32.45;;;6.18;;
31638;SDS011;18248;51.522;7.020;2023-10-13T14:45:54;26.17;;;6.18;;
31638;SDS011;18248;51.522;7.020;2023-10-13T14:48:53;26.80;;;6.22;;
31638;SDS011;18248;51.522;7.020;2023-10-13T14:51:51;24.15;;;5.43;;
31638;SDS011;18248;51.522;7.020;2023-10-13T14:54:53;33.13;;;6.97;;
31638;SDS011;18248;51.522;7.020;2023-10-13T14:57:54;24.25;;;5.82;;
31638;SDS011;18248;51.522;7.020;2023-10-13T15:00:53;29.73;;;6.60;;
31638;SDS011;18248;51.522;7.020;2023-10-13T15:03:53;22.60;;;6.32;;
31638;SDS011;18248;51.522;7.020;2023-10-13T15:06:53;27.45;;;6.60;;
31638;SDS011;18248;51.522;7.020;2023-10-13T15:09:51;31.48;;;6.32;;
31638;SDS011;18248;51.522;7.020;2023-10-13T15:12:50;21.83;;;6.43;;
31638;SDS011;18248;51.522;7.020;2023-10-13T15:15:49;37.47;;;6.40;;
31638;SDS011;18248;51.522;7.020;2023-10-13T15:18:48;23.98;;;6.05;;
31638;SDS011;18248;51.522;7.020;2023-10-13T15:21:50;30.83;;;6.28;;
31638;SDS011;18248;51.522;7.020;2023-10-13T15:24:48;29.15;;;5.10;;
31638;SDS011;18248;51.522;7.020;2023-10-13T15:28:06;26.90;;;6.00;;
31638;SDS011;18248;51.522;7.020;2023-10-13T15:31:11;23.10;;;5.95;;
31638;SDS011;18248;51.522;7.020;2023-10-13T15:34:20;30.70;;;6.35;;
31638;SDS011;18248;51.522;7.020;2023-10-13T15:37:21;19.42;;;5.50;;
31638;SDS011;18248;51.522;7.020;2023-10-13T15:40:23;21.95;;;5.80;;
31638;SDS011;18248;51.522;7.020;2023-10-13T15:43:25;20.42;;;5.97;;
31638;SDS011;18248;51.522;7.020;2023-10-13T15:46:26;16.50;;;5.53;;
31638;SDS011;18248;51.522;7.020;2023-10-13T15:49:24;29.38;;;6.20;;
31638;SDS011;18248;51.522;7.020;2023-10-13T15:52:26;28.90;;;6.45;;
31638;SDS011;18248;51.522;7.020;2023-10-13T15:55:25;22.75;;;5.78;;
31638;SDS011;18248;51.522;7.020;2023-10-13T15:58:24;20.35;;;5.75;;
31638;SDS011;18248;51.522;7.020;2023-10-13T16:01:23;20.60;;;6.50;;
31638;SDS011;18248;51.522;7.020;2023-10-13T16:04:22;25.13;;;5.32;;
31638;SDS011;18248;51.522;7.020;2023-10-13T16:07:21;21.23;;;5.40;;
31638;SDS011;18248;51.522;7.020;2023-10-13T16:10:23;18.80;;;5.45;;
31638;SDS011;18248;51.522;7.020;2023-10-13T16:13:21;22.42;;;6.03;;
31638;SDS011;18248;51.522;7.020;2023-10-13T16:16:21;27.33;;;5.32;;
31638;SDS011;18248;51.522;7.020;2023-10-13T16:19:20;17.40;;;5.13;;
31638;SDS011;18248;51.522;7.020;2023-10-13T16:22:19;22.88;;;5.47;;
31638;SDS011;18248;51.522;7.020;2023-10-13T16:25:18;27.80;;;6.18;;
31638;SDS011;18248;51.522;7.020;2023-10-13T16:28:19;19.17;;;5.55;;
31638;SDS011;18248;51.522;7.020;2023-10-13T16:31:20;24.92;;;5.75;;
31638;SDS011;18248;51.522;7.020;2023-10-13T16:34:25;24.48;;;6.10;;
31638;SDS011;18248;51.522;7.020;2023-10-13T16:37:24;19.70;;;5.85;;
31638;SDS011;18248;51.522;7.020;2023-10-13T16:40:24;28.17;;;6.57;;
31638;SDS011;18248;51.522;7.020;2023-10-13T16:43:22;23.95;;;5.45;;
31638;SDS011;18248;51.522;7.020;2023-10-13T16:46:21;21.52;;;5.45;;
31638;SDS011;18248;51.522;7.020;2023-10-13T16:49:21;20.75;;;5.82;;
31638;SDS011;18248;51.522;7.020;2023-10-13T16:52:20;16.98;;;5.13;;
31638;SDS011;18248;51.522;7.020;2023-10-13T16:55:18;24.92;;;6.28;;
31638;SDS011;18248;51.522;7.020;2023-10-13T16:58:17;24.27;;;5.93;;
31638;SDS011;18248;51.522;7.020;2023-10-13T17:01:16;25.67;;;6.00;;
31638;SDS011;18248;51.522;7.020;2023-10-13T17:04:15;20.33;;;5.47;;
31638;SDS011;18248;51.522;7.020;2023-10-13T17:07:17;17.25;;;5.72;;
31638;SDS011;18248;51.522;7.020;2023-10-13T17:10:17;19.67;;;5.65;;
31638;SDS011;18248;51.522;7.020;2023-10-13T17:13:16;14.77;;;5.25;;
31638;SDS011;18248;51.522;7.020;2023-10-13T17:16:15;20.10;;;5.78;;
31638;SDS011;18248;51.522;7.020;2023-10-13T17:19:18;15.73;;;5.13;;
31638;SDS011;18248;51.522;7.020;2023-10-13T17:22:17;20.83;;;5.88;;
31638;SDS011;18248;51.522;7.020;2023-10-13T17:25:17;18.40;;;6.03;;
31638;SDS011;18248;51.522;7.020;2023-10-13T17:28:16;23.55;;;5.40;;
31638;SDS011;18248;51.522;7.020;2023-10-13T17:31:14;18.33;;;5.85;;
31638;SDS011;18248;51.522;7.020;2023-10-13T17:34:13;19.60;;;5.57;;
31638;SDS011;18248;51.522;7.020;2023-10-13T17:37:15;21.25;;;6.03;;
31638;SDS011;18248;51.522;7.020;2023-10-13T17:40:13;16.40;;;5.88;;
31638;SDS011;18248;51.522;7.020;2023-10-13T17:43:15;20.13;;;5.63;;
31638;SDS011;18248;51.522;7.020;2023-10-13T17:46:13;19.60;;;5.70;;
31638;SDS011;18248;51.522;7.020;2023-10-13T17:49:12;20.17;;;5.38;;
31638;SDS011;18248;51.522;7.020;2023-10-13T17:52:11;27.45;;;5.90;;
31638;SDS011;18248;51.522;7.020;2023-10-13T17:55:10;19.00;;;6.40;;
31638;SDS011;18248;51.522;7.020;2023-10-13T17:58:08;13.45;;;5.32;;
31638;SDS011;18248;51.522;7.020;2023-10-13T18:01:07;20.02;;;6.43;;
31638;SDS011;18248;51.522;7.020;2023-10-13T18:04:07;15.68;;;5.40;;
31638;SDS011;18248;51.522;7.020;2023-10-13T18:07:07;23.92;;;6.32;;
31638;SDS011;18248;51.522;7.020;2023-10-13T18:10:09;14.70;;;5.05;;
31638;SDS011;18248;51.522;7.020;2023-10-13T18:13:11;25.38;;;6.25;;
31638;SDS011;18248;51.522;7.020;2023-10-13T18:16:20;23.58;;;6.15;;